Fillmore, North Dakota
Current Conditions -  °F | °C
As of 11:15 PM on Friday 28 Nov 2014 (Local Time) from K5H4 Reporting Station
Clear Clear  
Wind Chill: -2°   Ceiling: Unl
Heat Index: 10°   Visibility: 10mi
Dew Point:   Wind: 8mph
Humidity: 92%   Direction: 130°SE
Pressure: 29.44"   Gusts: NA
Location:  48.0994°N, 99.6793°W
Report Text: K5H4 290515Z AUTO 13007KT 10SM CLR M12/M13 A2944 RMK AO2
Loading
Personal Weather Stations






























Interactive Weather Map New forecast layout! Learn more

10-Day Weather Forecast

Advertisements
Track Severe Weather on mobile